createdAt,value
2023-05-12T00:01:59.045Z,95994.09
2023-05-12T00:04:44.508Z,95991.63
2023-05-12T00:07:29.682Z,95991.38
2023-05-12T00:10:15.183Z,95993.53
2023-05-12T00:13:00.309Z,95993.91
2023-05-12T00:15:45.589Z,95989.47
2023-05-12T00:18:30.967Z,95990.66
2023-05-12T00:21:16.185Z,95991.38
2023-05-12T00:24:01.746Z,95992.28
2023-05-12T00:26:46.691Z,95992.19
2023-05-12T00:29:32.939Z,95990.75
2023-05-12T00:32:18.316Z,95993.91
2023-05-12T00:35:03.689Z,95990.22
2023-05-12T00:37:48.719Z,95994.81
2023-05-12T00:40:34.073Z,95992.34
2023-05-12T00:43:19.418Z,95993.50
2023-05-12T00:46:06.246Z,95998.97
2023-05-12T00:48:52.157Z,95995.22
2023-05-12T00:51:37.665Z,95996.41
2023-05-12T00:54:23.292Z,95997.41
2023-05-12T00:57:08.474Z,96000.75
2023-05-12T00:59:55.506Z,96001.31
2023-05-12T01:02:41.095Z,96007.91
2023-05-12T01:05:32.109Z,96005.81
2023-05-12T01:08:17.855Z,96005.53
2023-05-12T01:11:02.997Z,96008.50
2023-05-12T01:13:48.342Z,96015.31
2023-05-12T01:16:39.396Z,96015.81
2023-05-12T01:19:42.740Z,96007.31
2023-05-12T01:22:33.841Z,96013.53
2023-05-12T01:25:22.305Z,96013.91
2023-05-12T01:28:08.089Z,96005.72
2023-05-12T01:30:53.794Z,96010.34
2023-05-12T01:33:39.822Z,96009.69
2023-05-12T01:36:25.174Z,96002.63
2023-05-12T01:39:10.567Z,96009.69
2023-05-12T01:41:56.130Z,96000.38
2023-05-12T01:44:41.454Z,96003.19
2023-05-12T01:47:26.780Z,96008.75
2023-05-12T01:50:12.103Z,96011.75
2023-05-12T01:52:57.359Z,96012.09
2023-05-12T01:55:42.678Z,96004.75
2023-05-12T01:58:27.870Z,96003.56
2023-05-12T02:01:13.452Z,96010.44
2023-05-12T02:03:59.548Z,96007.38
2023-05-12T02:06:44.855Z,96006.38
2023-05-12T02:09:30.395Z,96006.91
2023-05-12T02:12:16.021Z,96007.88
2023-05-12T02:15:01.016Z,96009.38
2023-05-12T02:17:46.441Z,96004.09
2023-05-12T02:20:31.629Z,96006.09
2023-05-12T02:23:16.955Z,95999.34
2023-05-12T02:26:02.106Z,95998.88
2023-05-12T02:28:47.388Z,96005.13
2023-05-12T02:31:32.779Z,96005.31
2023-05-12T02:34:18.146Z,96007.94
2023-05-12T02:37:04.090Z,96009.28
2023-05-12T02:39:49.336Z,96005.38
2023-05-12T02:42:36.181Z,96007.34
2023-05-12T02:45:21.455Z,96009.88
2023-05-12T02:48:06.763Z,96004.78
2023-05-12T02:50:52.197Z,96006.75
2023-05-12T02:53:37.365Z,96004.50
2023-05-12T02:56:22.751Z,96008.38
2023-05-12T02:59:08.043Z,96004.44
2023-05-12T03:01:53.319Z,96003.97
2023-05-12T03:04:38.658Z,96011.66
2023-05-12T03:07:24.150Z,96010.03
2023-05-12T03:10:10.534Z,96010.84
2023-05-12T03:12:55.918Z,96005.41
2023-05-12T03:15:41.367Z,96013.28
2023-05-12T03:18:28.341Z,96018.25
2023-05-12T03:21:13.551Z,96014.81
2023-05-12T03:23:58.789Z,96017.44
2023-05-12T03:26:43.961Z,96016.63
2023-05-12T03:29:29.299Z,96012.00
2023-05-12T03:32:14.765Z,96021.88
2023-05-12T03:35:00.030Z,96023.19
2023-05-12T03:37:45.383Z,96020.25
2023-05-12T03:40:30.795Z,96024.31
2023-05-12T03:43:15.923Z,96024.16
2023-05-12T03:46:01.294Z,96021.53
2023-05-12T03:48:46.957Z,96027.41
2023-05-12T03:51:31.925Z,96037.94
2023-05-12T03:54:17.130Z,96039.25
2023-05-12T03:57:03.551Z,96039.91
2023-05-12T03:59:48.935Z,96042.19
2023-05-12T04:02:34.305Z,96042.19
2023-05-12T04:05:19.540Z,96051.34
2023-05-12T04:08:05.213Z,96051.00
2023-05-12T04:10:50.221Z,96044.44
2023-05-12T04:13:35.437Z,96048.50
2023-05-12T04:16:21.375Z,96051.59
2023-05-12T04:19:06.614Z,96051.91
2023-05-12T04:21:51.973Z,96055.53
2023-05-12T04:24:38.832Z,96050.56
2023-05-12T04:27:24.332Z,96056.78
2023-05-12T04:30:09.796Z,96060.16
2023-05-12T04:32:55.472Z,96057.47
2023-05-12T04:35:41.090Z,96062.03
2023-05-12T04:38:26.834Z,96057.56
2023-05-12T04:41:11.929Z,96051.38
2023-05-12T04:46:45.867Z,96050.72
2023-05-12T04:49:30.916Z,96050.81
2023-05-12T04:52:16.289Z,96046.13
2023-05-12T04:55:01.657Z,96051.84
2023-05-12T04:57:47.044Z,96061.13
2023-05-12T05:00:32.399Z,96060.88
2023-05-12T05:03:17.751Z,96070.16
2023-05-12T05:06:02.960Z,96059.00
2023-05-12T05:08:48.472Z,96056.72
2023-05-12T05:11:33.520Z,96066.63
2023-05-12T05:14:18.890Z,96062.38
2023-05-12T05:17:07.972Z,96062.97
2023-05-12T05:19:58.389Z,96056.69
2023-05-12T05:22:44.583Z,96054.19
2023-05-12T05:25:29.836Z,96057.38
2023-05-12T05:28:15.540Z,96056.25
2023-05-12T05:31:01.043Z,96064.91
2023-05-12T05:33:46.339Z,96068.69
2023-05-12T05:36:31.836Z,96062.97
2023-05-12T05:39:17.585Z,96074.72
2023-05-12T05:42:03.100Z,96079.84
2023-05-12T05:44:48.547Z,96074.06
2023-05-12T05:47:34.441Z,96075.84
2023-05-12T05:50:19.753Z,96073.50
2023-05-12T05:53:04.868Z,96077.25
2023-05-12T05:55:50.171Z,96084.88
2023-05-12T05:58:35.665Z,96087.19
2023-05-12T06:01:20.853Z,96085.44
2023-05-12T06:04:06.221Z,96084.50
2023-05-12T06:06:51.696Z,96086.97
2023-05-12T06:09:36.994Z,96092.06
2023-05-12T06:12:22.031Z,96091.28
2023-05-12T06:15:08.217Z,96088.66
2023-05-12T06:17:53.364Z,96085.47
2023-05-12T06:20:38.526Z,96081.41
2023-05-12T06:23:23.813Z,96085.31
2023-05-12T06:26:09.626Z,96080.59
2023-05-12T06:28:55.123Z,96095.66
2023-05-12T06:31:40.292Z,96084.78
2023-05-12T06:34:25.868Z,96084.13
2023-05-12T06:37:11.474Z,96078.19
2023-05-12T06:39:56.426Z,96072.75
2023-05-12T06:42:41.546Z,96070.44
2023-05-12T06:45:26.838Z,96081.41
2023-05-12T06:48:12.226Z,96082.16
2023-05-12T06:50:57.532Z,96073.50
2023-05-12T06:53:42.862Z,96078.28
2023-05-12T06:56:29.438Z,96079.41
2023-05-12T06:59:14.842Z,96082.63
2023-05-12T07:02:00.230Z,96081.47
2023-05-12T07:04:45.492Z,96084.00
2023-05-12T07:07:30.750Z,96087.41
2023-05-12T07:10:16.349Z,96080.88
2023-05-12T07:13:01.483Z,96085.44
2023-05-12T07:15:46.719Z,96081.69
2023-05-12T07:18:32.197Z,96081.19
2023-05-12T07:21:17.398Z,96088.50
2023-05-12T07:24:02.981Z,96082.75
2023-05-12T07:26:48.370Z,96084.72
2023-05-12T07:29:34.335Z,96093.91
2023-05-12T07:32:19.834Z,96085.66
2023-05-12T07:35:05.449Z,96088.38
2023-05-12T07:37:50.938Z,96091.91
2023-05-12T07:40:36.086Z,96090.44
2023-05-12T07:43:21.482Z,96093.84
2023-05-12T07:46:06.862Z,96093.16
2023-05-12T07:48:52.125Z,96086.25
2023-05-12T07:51:37.675Z,96083.72
2023-05-12T07:54:22.930Z,96092.44
2023-05-12T07:57:08.515Z,96088.50
2023-05-12T07:59:53.651Z,96090.28
2023-05-12T08:02:40.517Z,96086.44
2023-05-12T08:05:26.039Z,96096.50
2023-05-12T08:08:16.616Z,96091.53
2023-05-12T08:11:02.377Z,96082.50
2023-05-12T08:13:47.615Z,96086.34
2023-05-12T08:16:33.036Z,96100.97
2023-05-12T08:19:18.516Z,96090.91
2023-05-12T08:22:03.769Z,96095.66
2023-05-12T08:24:48.712Z,96084.66
2023-05-12T08:27:34.176Z,96088.50
2023-05-12T08:30:19.351Z,96081.19
2023-05-12T08:33:05.000Z,96080.28
2023-05-12T08:35:50.782Z,96076.69
2023-05-12T08:38:35.821Z,96080.53
2023-05-12T08:41:31.732Z,96081.25
2023-05-12T08:44:19.075Z,96071.75
2023-05-12T08:47:05.815Z,96074.09
2023-05-12T08:50:00.250Z,96077.34
2023-05-12T08:52:45.403Z,96065.03
2023-05-12T08:55:34.125Z,96062.81
2023-05-12T08:58:25.289Z,96063.53
2023-05-12T09:01:19.702Z,96059.47
2023-05-12T09:04:05.109Z,96060.84
2023-05-12T09:06:51.750Z,96064.91
2023-05-12T09:09:40.751Z,96061.28
2023-05-12T09:12:29.817Z,96060.59
2023-05-12T09:15:18.824Z,96067.31
2023-05-12T09:18:04.423Z,96053.59
2023-05-12T09:20:49.738Z,96062.75
2023-05-12T09:23:35.184Z,96059.16
2023-05-12T09:26:22.729Z,96058.78
2023-05-12T09:29:08.615Z,96068.75
2023-05-12T09:31:59.534Z,96060.94
2023-05-12T09:34:45.565Z,96069.66
2023-05-12T09:37:32.438Z,96063.25
2023-05-12T09:40:17.449Z,96067.22
2023-05-12T09:43:03.954Z,96065.22
2023-05-12T09:45:50.712Z,96068.06
2023-05-12T09:48:39.056Z,96063.13
2023-05-12T09:51:25.949Z,96060.22
2023-05-12T09:54:10.969Z,96056.03
2023-05-12T09:57:02.627Z,96058.88
2023-05-12T09:59:48.287Z,96054.59
2023-05-12T10:02:34.665Z,96056.84
2023-05-12T10:05:21.866Z,96050.06
2023-05-12T10:08:08.240Z,96054.41
2023-05-12T10:10:56.338Z,96047.91
2023-05-12T10:13:41.992Z,96055.72
2023-05-12T10:16:28.800Z,96045.19
2023-05-12T10:19:14.600Z,96051.50
2023-05-12T10:22:00.794Z,96050.97
2023-05-12T10:24:47.154Z,96055.31
2023-05-12T10:27:33.473Z,96046.47
2023-05-12T10:30:18.692Z,96055.81
2023-05-12T10:33:04.050Z,96048.44
2023-05-12T10:35:51.855Z,96040.66
2023-05-12T10:38:37.465Z,96046.41
2023-05-12T10:41:34.105Z,96037.13
2023-05-12T10:44:27.862Z,96038.00
2023-05-12T10:47:14.957Z,96038.91
2023-05-12T10:50:00.350Z,96033.22
2023-05-12T10:52:58.017Z,96037.22
2023-05-12T10:55:46.454Z,96031.94
2023-05-12T10:58:32.973Z,96022.84
2023-05-12T11:01:25.281Z,96025.59
2023-05-12T11:04:16.278Z,96023.72
2023-05-12T11:07:02.877Z,96022.44
2023-05-12T11:12:37.867Z,96023.69
2023-05-12T11:15:23.427Z,96018.63
2023-05-12T11:18:09.397Z,96020.09
2023-05-12T11:20:54.934Z,96017.78
2023-05-12T11:23:40.317Z,96027.50
2023-05-12T11:26:27.304Z,96013.91
2023-05-12T11:29:12.334Z,96008.31
2023-05-12T11:31:58.799Z,96021.34
2023-05-12T11:34:44.573Z,96010.69
2023-05-12T11:37:30.608Z,96012.84
2023-05-12T11:40:18.222Z,96010.75
2023-05-12T11:43:10.002Z,96011.94
2023-05-12T11:45:55.902Z,96012.78
2023-05-12T11:48:41.213Z,96008.38
2023-05-12T11:51:27.493Z,96009.81
2023-05-12T11:54:12.809Z,96012.81
2023-05-12T11:56:58.582Z,96000.97
2023-05-12T11:59:43.831Z,96007.84
2023-05-12T12:02:30.646Z,96002.91
2023-05-12T12:05:18.443Z,96006.00
2023-05-12T12:08:08.465Z,95996.13
2023-05-12T12:10:53.630Z,95998.25
2023-05-12T12:13:39.148Z,95990.03
2023-05-12T12:16:29.576Z,95993.88
2023-05-12T12:19:14.854Z,95994.41
2023-05-12T12:22:00.066Z,95993.44
2023-05-12T12:24:45.365Z,95995.56
2023-05-12T12:27:30.889Z,95998.78
2023-05-12T12:30:17.024Z,95983.97
2023-05-12T12:33:02.484Z,95990.47
2023-05-12T12:35:48.057Z,95988.66
2023-05-12T12:38:33.435Z,96001.38
2023-05-12T12:41:18.682Z,96000.53
2023-05-12T12:44:04.014Z,95997.81
2023-05-12T12:46:49.391Z,96003.91
2023-05-12T12:49:34.551Z,96000.69
2023-05-12T12:52:19.848Z,95993.34
2023-05-12T12:55:08.785Z,96003.59
2023-05-12T12:57:53.995Z,95992.44
2023-05-12T13:00:39.015Z,95980.59
2023-05-12T13:03:24.355Z,95996.22
2023-05-12T13:06:09.613Z,95989.66
2023-05-12T13:08:55.374Z,95999.03
2023-05-12T13:11:40.788Z,95990.22
2023-05-12T13:14:26.186Z,95999.25
2023-05-12T13:17:11.340Z,95984.25
2023-05-12T13:19:56.766Z,95992.81
2023-05-12T13:22:42.923Z,95986.66
2023-05-12T13:25:28.390Z,95988.78
2023-05-12T13:28:13.679Z,95983.94
2023-05-12T13:30:59.081Z,95978.84
2023-05-12T13:33:44.277Z,95972.25
2023-05-12T13:36:30.342Z,95981.75
2023-05-12T13:39:16.852Z,95976.59
2023-05-12T13:42:03.264Z,95973.13
2023-05-12T13:44:49.184Z,95973.94
2023-05-12T13:47:34.271Z,95982.78
2023-05-12T13:50:19.464Z,95974.25
2023-05-12T13:53:04.841Z,95972.84
2023-05-12T13:55:50.063Z,95975.75
2023-05-12T13:58:35.543Z,95976.75
2023-05-12T14:01:20.842Z,95975.63
2023-05-12T14:04:06.117Z,95966.25
2023-05-12T14:06:51.646Z,95969.44
2023-05-12T14:09:36.905Z,95969.81
2023-05-12T14:12:22.343Z,95972.00
2023-05-12T14:15:20.030Z,95973.72
2023-05-12T14:18:11.578Z,95977.22
2023-05-12T14:20:57.332Z,95976.41
2023-05-12T14:23:42.702Z,95974.25
2023-05-12T14:26:28.355Z,95965.19
2023-05-12T14:29:13.376Z,95966.31
2023-05-12T14:31:59.935Z,95963.41
2023-05-12T14:34:45.171Z,95971.09
2023-05-12T14:37:31.510Z,95970.47
2023-05-12T14:40:16.678Z,95966.94
2023-05-12T14:43:02.548Z,95971.72
2023-05-12T14:45:54.690Z,95960.63
2023-05-12T14:48:40.204Z,95971.94
2023-05-12T14:51:25.497Z,95972.25
2023-05-12T14:54:24.331Z,95972.59
2023-05-12T14:57:11.044Z,95976.97
2023-05-12T14:59:58.753Z,95970.53
2023-05-12T15:02:45.265Z,95972.06
2023-05-12T15:05:52.916Z,95978.25
2023-05-12T15:08:35.780Z,95983.09
2023-05-12T15:11:21.678Z,95990.81
2023-05-12T15:14:07.135Z,95983.78
2023-05-12T15:16:52.632Z,95983.72
2023-05-12T15:19:37.849Z,95978.66
2023-05-12T15:22:23.374Z,95979.88
2023-05-12T15:25:09.173Z,95982.81
2023-05-12T15:27:54.685Z,95984.72
2023-05-12T15:30:39.991Z,95988.03
2023-05-12T15:33:25.578Z,95986.44
2023-05-12T15:36:11.569Z,95986.97
2023-05-12T15:38:57.029Z,95988.78
2023-05-12T15:41:42.844Z,95991.22
2023-05-12T15:44:27.943Z,95984.13
2023-05-12T15:47:14.463Z,95991.09
2023-05-12T15:49:59.828Z,95992.78
2023-05-12T15:52:46.279Z,95986.59
2023-05-12T15:55:32.271Z,95989.84
2023-05-12T15:58:17.541Z,95992.72
2023-05-12T16:01:02.723Z,95979.31
2023-05-12T16:03:50.085Z,95987.13
2023-05-12T16:06:35.486Z,95978.56
2023-05-12T16:09:20.829Z,95987.72
2023-05-12T16:12:08.674Z,95990.78
2023-05-12T16:14:54.627Z,95992.06
2023-05-12T16:17:40.019Z,95996.44
2023-05-12T16:20:25.329Z,95990.91
2023-05-12T16:23:10.792Z,95995.19
2023-05-12T16:25:56.109Z,95993.59
2023-05-12T16:28:41.318Z,95994.97
2023-05-12T16:31:26.919Z,96001.63
2023-05-12T16:34:12.342Z,96003.38
2023-05-12T16:36:57.679Z,96003.94
2023-05-12T16:39:42.915Z,96007.38
2023-05-12T16:42:28.211Z,96013.09
2023-05-12T16:45:13.576Z,96015.25
2023-05-12T16:47:58.734Z,96017.03
2023-05-12T16:50:43.912Z,96012.03
2023-05-12T16:53:30.040Z,96017.88
2023-05-12T16:56:15.118Z,96022.50
2023-05-12T16:59:01.250Z,96021.94
2023-05-12T17:01:46.256Z,96021.69
2023-05-12T17:04:31.734Z,96023.53
2023-05-12T17:07:16.990Z,96029.72
2023-05-12T17:10:02.841Z,96026.16
2023-05-12T17:12:48.491Z,96031.50
2023-05-12T17:15:33.704Z,96034.69
2023-05-12T17:18:19.089Z,96029.84
2023-05-12T17:21:04.792Z,96031.88
2023-05-12T17:23:50.675Z,96038.75
2023-05-12T17:26:36.076Z,96033.34
2023-05-12T17:29:21.565Z,96040.25
2023-05-12T17:32:07.422Z,96044.94
2023-05-12T17:34:52.591Z,96043.72
2023-05-12T17:37:38.458Z,96046.06
2023-05-12T17:40:23.736Z,96043.06
2023-05-12T17:43:08.906Z,96043.56
2023-05-12T17:45:54.168Z,96043.72
2023-05-12T17:48:39.187Z,96046.81
2023-05-12T17:51:24.635Z,96054.41
2023-05-12T17:54:09.829Z,96054.88
2023-05-12T17:56:55.169Z,96053.41
2023-05-12T17:59:40.219Z,96051.94
2023-05-12T18:02:25.435Z,96057.69
2023-05-12T18:05:11.198Z,96058.06
2023-05-12T18:07:56.494Z,96062.75
2023-05-12T18:10:41.645Z,96064.75
2023-05-12T18:13:27.152Z,96070.47
2023-05-12T18:16:21.686Z,96073.50
2023-05-12T18:19:13.733Z,96074.34
2023-05-12T18:21:59.204Z,96077.63
2023-05-12T18:24:44.637Z,96081.94
2023-05-12T18:27:29.722Z,96086.25
2023-05-12T18:30:15.125Z,96089.28
2023-05-12T18:33:00.273Z,96091.50
2023-05-12T18:35:45.859Z,96096.59
2023-05-12T18:38:31.277Z,96093.69
2023-05-12T18:41:16.715Z,96098.69
2023-05-12T18:44:01.947Z,96105.16
2023-05-12T18:46:47.648Z,96106.09
2023-05-12T18:49:33.263Z,96116.06
2023-05-12T18:52:19.903Z,96108.53
2023-05-12T18:55:05.413Z,96109.63
2023-05-12T18:57:50.528Z,96114.25
2023-05-12T19:00:36.181Z,96114.13
2023-05-12T19:03:21.598Z,96113.75
2023-05-12T19:06:06.698Z,96114.91
2023-05-12T19:08:52.223Z,96117.09
2023-05-12T19:11:37.428Z,96123.53
2023-05-12T19:14:24.022Z,96126.91
2023-05-12T19:17:09.343Z,96121.44
2023-05-12T19:19:54.814Z,96127.66
2023-05-12T19:22:40.694Z,96124.44
2023-05-12T19:25:26.283Z,96123.84
2023-05-12T19:28:12.070Z,96131.91
2023-05-12T19:30:57.426Z,96135.22
2023-05-12T19:33:42.791Z,96136.38
2023-05-12T19:36:29.847Z,96148.28
2023-05-12T19:39:15.275Z,96140.72
2023-05-12T19:42:00.766Z,96142.06
2023-05-12T19:44:46.217Z,96148.88
2023-05-12T19:47:33.355Z,96150.34
2023-05-12T19:50:20.177Z,96147.09
2023-05-12T19:53:05.278Z,96147.53
2023-05-12T19:55:50.547Z,96150.06
2023-05-12T19:58:35.854Z,96150.94
2023-05-12T20:01:21.321Z,96159.97
2023-05-12T20:04:06.643Z,96151.38
2023-05-12T20:06:53.875Z,96153.63
2023-05-12T20:09:38.994Z,96147.72
2023-05-12T20:12:24.321Z,96149.81
2023-05-12T20:15:10.629Z,96151.50
2023-05-12T20:17:56.224Z,96151.09
2023-05-12T20:20:42.479Z,96151.34
2023-05-12T20:23:28.008Z,96146.69
2023-05-12T20:26:13.335Z,96147.09
2023-05-12T20:28:59.600Z,96145.09
2023-05-12T20:31:45.762Z,96153.31
2023-05-12T20:34:32.169Z,96151.66
2023-05-12T20:37:18.237Z,96155.00
2023-05-12T20:40:05.358Z,96160.59
2023-05-12T20:42:50.558Z,96162.50
2023-05-12T20:45:36.793Z,96157.84
2023-05-12T20:48:22.425Z,96159.50
2023-05-12T20:51:13.481Z,96163.00
2023-05-12T20:53:58.859Z,96158.75
2023-05-12T20:56:44.087Z,96163.91
2023-05-12T20:59:29.393Z,96167.59
2023-05-12T21:02:18.375Z,96171.91
2023-05-12T21:05:05.328Z,96173.19
2023-05-12T21:07:50.337Z,96177.97
2023-05-12T21:10:39.369Z,96165.81
2023-05-12T21:13:24.757Z,96177.88
2023-05-12T21:16:10.207Z,96184.19
2023-05-12T21:18:56.106Z,96187.06
2023-05-12T21:21:41.534Z,96184.66
2023-05-12T21:24:27.596Z,96190.44
2023-05-12T21:27:12.658Z,96188.59
2023-05-12T21:29:58.251Z,96195.75
2023-05-12T21:32:43.740Z,96189.81
2023-05-12T21:35:28.985Z,96192.69
2023-05-12T21:38:14.428Z,96196.56
2023-05-12T21:41:00.444Z,96203.91
2023-05-12T21:43:45.653Z,96208.44
2023-05-12T21:46:31.155Z,96195.75
2023-05-12T21:49:16.315Z,96198.44
2023-05-12T21:52:01.677Z,96197.88
2023-05-12T21:54:47.083Z,96192.59
2023-05-12T21:57:32.321Z,96204.84
2023-05-12T22:00:20.051Z,96206.50
2023-05-12T22:03:07.995Z,96209.38
2023-05-12T22:05:53.362Z,96202.47
2023-05-12T22:08:38.598Z,96204.91
2023-05-12T22:11:24.254Z,96210.44
2023-05-12T22:14:09.933Z,96208.00
2023-05-12T22:16:56.151Z,96216.16
2023-05-12T22:19:41.576Z,96206.78
2023-05-12T22:22:27.017Z,96216.00
2023-05-12T22:25:12.203Z,96210.88
2023-05-12T22:27:57.592Z,96216.78
2023-05-12T22:30:42.824Z,96218.63
2023-05-12T22:33:28.129Z,96215.34
2023-05-12T22:36:13.522Z,96217.97
2023-05-12T22:38:58.817Z,96221.63
2023-05-12T22:41:44.141Z,96219.16
2023-05-12T22:44:29.356Z,96226.25
2023-05-12T22:47:14.746Z,96227.69
2023-05-12T22:50:00.748Z,96219.34
2023-05-12T22:52:45.776Z,96226.88
2023-05-12T22:55:31.144Z,96224.84
2023-05-12T22:58:16.420Z,96220.75
2023-05-12T23:01:02.046Z,96220.13
2023-05-12T23:03:47.533Z,96221.34
2023-05-12T23:06:32.811Z,96224.78
2023-05-12T23:09:18.197Z,96220.09
2023-05-12T23:12:04.829Z,96220.69
2023-05-12T23:14:50.709Z,96220.28
2023-05-12T23:17:35.844Z,96223.50
2023-05-12T23:20:21.500Z,96219.44
2023-05-12T23:23:07.169Z,96223.06
2023-05-12T23:25:52.522Z,96213.66
2023-05-12T23:28:37.999Z,96216.69
2023-05-12T23:31:23.311Z,96218.88
2023-05-12T23:34:08.608Z,96220.69
2023-05-12T23:36:54.286Z,96221.25
2023-05-12T23:39:39.539Z,96208.41
2023-05-12T23:42:24.956Z,96218.75
2023-05-12T23:45:10.817Z,96219.50
2023-05-12T23:47:56.016Z,96215.84
2023-05-12T23:50:41.292Z,96212.13
2023-05-12T23:53:26.549Z,96221.22
2023-05-12T23:56:11.790Z,96212.06
2023-05-12T23:58:56.933Z,96215.31
